Time;durP1;ratioP1;P1;durP2;ratioP2;P2;SDS_P1;SDS_P2;PMS_P1;PMS_P2;Temp;Humidity;BMP_temperature;BMP_pressure;BME280_temperature;BME280_humidity;BME280_pressure;Samples;Min_cycle;Max_cycle;Signal;HPM_P1;HPM_P2
2023/10/14 00:00:26;;;;;;;7.75;1.15;;;14.00;99.90;;;;;;4249461;27;20570;-82
2023/10/14 00:02:27;;;;;;;8.82;0.88;;;14.00;99.90;;;;;;4249753;27;20043;-82
2023/10/14 00:04:29;;;;;;;7.60;1.27;;;13.90;99.90;;;;;;4214628;28;20568;-82
2023/10/14 00:06:34;;;;;;;10.73;1.65;;;13.80;99.90;;;;;;4249588;27;20058;-81
2023/10/14 00:08:39;;;;;;;6.50;0.75;;;13.80;99.90;;;;;;4214455;28;20059;-82
2023/10/14 00:10:40;;;;;;;5.07;0.77;;;13.70;99.90;;;;;;4249565;27;20092;-82
2023/10/14 00:12:41;;;;;;;4.85;1.00;;;13.70;99.90;;;;;;4213650;28;20589;-82
2023/10/14 00:14:43;;;;;;;3.35;0.82;;;13.60;99.90;;;;;;4249555;27;20040;-82
2023/10/14 00:16:51;;;;;;;9.15;0.82;;;13.60;99.90;;;;;;4249479;27;20118;-82
2023/10/14 00:18:52;;;;;;;6.15;0.90;;;13.60;99.90;;;;;;4214463;28;20070;-82
2023/10/14 00:20:54;;;;;;;4.07;0.75;;;13.60;99.90;;;;;;4249435;27;20522;-82
2023/10/14 00:22:54;;;;;;;3.92;0.85;;;13.60;99.90;;;;;;4214231;28;20048;-82
2023/10/14 00:24:58;;;;;;;4.32;0.93;;;13.50;99.90;;;;;;4249343;27;20492;-82
2023/10/14 00:26:59;;;;;;;9.68;1.00;;;13.50;99.90;;;;;;4230924;28;20056;-82
2023/10/14 00:31:18;;;;;;;4.80;1.27;;;13.50;99.90;;;;;;4231091;28;20055;-82
2023/10/14 00:33:20;;;;;;;7.97;1.15;;;13.40;99.90;;;;;;4249256;27;20132;-82
2023/10/14 00:35:21;;;;;;;7.47;1.33;;;13.40;99.90;;;;;;4230940;28;20116;-82
2023/10/14 00:37:22;;;;;;;10.07;1.77;;;13.30;99.90;;;;;;4213559;28;20040;-82
2023/10/14 00:39:31;;;;;;;7.78;1.00;;;13.30;99.90;;;;;;4249149;27;20042;-82
2023/10/14 00:41:36;;;;;;;;;;;13.20;99.90;;;;;;4231374;28;20043;-82
2023/10/14 00:43:39;;;;;;;8.48;1.48;;;13.10;99.90;;;;;;4249262;27;20260;-81
2023/10/14 00:45:43;;;;;;;11.52;1.40;;;13.10;99.90;;;;;;4230811;28;20388;-82
2023/10/14 00:47:44;;;;;;;9.68;1.65;;;13.10;99.90;;;;;;4248918;27;20099;-82
2023/10/14 00:49:45;;;;;;;13.65;1.45;;;13.10;99.90;;;;;;4248467;27;20047;-83
2023/10/14 00:51:51;;;;;;;4.25;1.05;;;13.00;99.90;;;;;;4249066;27;20045;-83
2023/10/14 00:53:52;;;;;;;3.10;0.75;;;13.00;99.90;;;;;;4249146;27;20043;-83
2023/10/14 00:55:54;;;;;;;15.93;1.15;;;12.90;99.90;;;;;;4249126;27;20483;-83
2023/10/14 00:57:55;;;;;;;8.05;1.35;;;12.90;99.90;;;;;;4249229;27;20051;-83
2023/10/14 00:59:55;;;;;;;4.47;0.85;;;12.80;99.90;;;;;;4248762;27;20050;-83
2023/10/14 01:02:01;;;;;;;9.95;1.20;;;12.70;99.90;;;;;;4249117;27;20043;-83
2023/10/14 01:04:21;;;;;;;10.00;2.08;;;12.70;99.90;;;;;;4249185;27;20065;-82
2023/10/14 01:06:34;;;;;;;8.25;1.25;;;12.60;99.90;;;;;;4230435;28;20087;-84
2023/10/14 01:08:42;;;;;;;13.45;1.83;;;12.60;99.90;;;;;;4248716;27;20082;-83
2023/10/14 01:10:43;;;;;;;7.30;1.50;;;12.50;99.90;;;;;;4248927;27;20043;-82
2023/10/14 01:12:44;;;;;;;8.48;1.00;;;12.50;99.90;;;;;;4248379;27;20046;-82
2023/10/14 01:14:46;;;;;;;6.68;1.17;;;12.40;99.90;;;;;;4248825;27;20043;-82
2023/10/14 01:16:47;;;;;;;7.28;1.25;;;12.40;99.90;;;;;;4230463;28;20434;-83
2023/10/14 01:18:48;;;;;;;11.02;1.73;;;12.30;99.90;;;;;;4230260;28;20052;-82
2023/10/14 01:20:49;;;;;;;8.18;1.25;;;12.30;99.90;;;;;;4248629;27;20137;-82
2023/10/14 01:23:00;;;;;;;10.35;1.25;;;12.20;99.90;;;;;;4248260;27;20087;-83
2023/10/14 01:25:05;;;;;;;7.55;1.92;;;12.20;99.90;;;;;;4247640;27;20436;-82
2023/10/14 01:27:07;;;;;;;11.23;1.38;;;12.10;99.90;;;;;;4248661;27;20095;-83
2023/10/14 01:29:11;;;;;;;8.18;1.00;;;12.10;99.90;;;;;;4248667;27;20040;-82
2023/10/14 01:33:35;;;;;;;10.60;1.13;;;12.00;99.90;;;;;;4248210;27;20548;-82
2023/10/14 01:35:41;;;;;;;6.38;1.17;;;11.90;99.90;;;;;;4248512;27;20426;-82
2023/10/14 01:37:45;;;;;;;12.15;1.23;;;11.90;99.90;;;;;;4247733;27;20046;-82
2023/10/14 01:39:49;;;;;;;6.47;1.75;;;11.80;99.90;;;;;;4230374;28;20090;-82
2023/10/14 01:41:49;;;;;;;9.38;1.25;;;11.80;99.90;;;;;;4229893;28;20044;-82
2023/10/14 01:43:52;;;;;;;11.57;1.67;;;11.70;99.90;;;;;;4248295;27;20039;-82
2023/10/14 01:48:12;;;;;;;14.80;2.40;;;11.70;99.90;;;;;;4248386;27;20427;-82
2023/10/14 01:50:12;;;;;;;8.90;1.67;;;11.60;99.90;;;;;;4248182;27;20100;-82
2023/10/14 01:52:20;;;;;;;7.88;1.08;;;11.60;99.90;;;;;;4248326;27;20055;-82
2023/10/14 01:54:22;;;;;;;5.40;1.10;;;11.60;99.90;;;;;;4247805;27;20043;-82
2023/10/14 01:56:23;;;;;;;10.50;1.33;;;11.60;99.90;;;;;;4248100;27;20522;-82
2023/10/14 01:58:30;;;;;;;9.23;1.20;;;11.50;99.90;;;;;;4248351;27;20047;-82
2023/10/14 02:00:38;;;;;;;9.02;1.92;;;11.50;99.90;;;;;;4230338;28;20051;-82
2023/10/14 02:02:48;;;;;;;12.53;2.17;;;11.50;99.90;;;;;;4247831;27;20927;-82
2023/10/14 02:04:56;;;;;;;10.45;0.93;;;11.50;99.90;;;;;;4248054;27;20265;-82
2023/10/14 02:09:18;;;;;;;11.63;1.83;;;11.40;99.90;;;;;;4248146;28;20083;-82
2023/10/14 02:11:35;;;;;;;7.97;1.52;;;11.40;99.90;;;;;;4212971;28;20086;-82
2023/10/14 02:13:36;;;;;;;8.88;1.38;;;11.40;99.90;;;;;;4248358;28;20493;-83
2023/10/14 02:15:37;;;;;;;10.02;1.67;;;11.40;99.90;;;;;;4247992;28;20086;-83
2023/10/14 02:17:40;;;;;;;9.07;1.52;;;11.40;99.90;;;;;;4248130;28;20377;-82
2023/10/14 02:19:41;;;;;;;11.95;1.88;;;11.30;99.90;;;;;;4248019;28;20039;-82
2023/10/14 02:21:43;;;;;;;5.85;1.00;;;11.30;99.90;;;;;;4212967;28;20040;-82
2023/10/14 02:23:45;;;;;;;3.85;1.30;;;11.30;99.90;;;;;;4248157;28;20040;-82
2023/10/14 02:25:46;;;;;;;14.73;1.70;;;11.30;99.90;;;;;;4212993;28;20123;-82
2023/10/14 02:27:46;;;;;;;6.10;1.00;;;11.20;99.90;;;;;;4229299;28;20048;-82
2023/10/14 02:29:48;;;;;;;7.95;1.67;;;11.20;99.90;;;;;;4247966;28;20096;-82
2023/10/14 02:31:49;;;;;;;8.20;1.15;;;11.20;99.90;;;;;;4212959;28;20051;-82
2023/10/14 02:33:49;;;;;;;8.43;1.25;;;11.20;99.90;;;;;;4247891;28;20111;-82
2023/10/14 02:35:50;;;;;;;8.82;1.45;;;11.10;99.90;;;;;;4231760;28;20083;-82
2023/10/14 02:37:53;;;;;;;9.70;1.50;;;11.10;99.90;;;;;;4251428;27;20031;-82
2023/10/14 02:39:54;;;;;;;4.47;0.80;;;11.10;99.90;;;;;;4232486;28;20050;-82
2023/10/14 02:42:14;;;;;;;6.63;1.58;;;11.10;99.90;;;;;;4232999;28;20111;-82
2023/10/14 02:44:20;;;;;;;12.75;1.40;;;11.10;99.90;;;;;;4251321;27;20046;-82
2023/10/14 02:46:21;;;;;;;6.32;1.02;;;11.10;99.90;;;;;;4251348;27;20471;-82
2023/10/14 02:48:21;;;;;;;7.32;1.00;;;11.10;99.90;;;;;;4232816;28;20085;-82
2023/10/14 02:50:24;;;;;;;8.75;1.20;;;11.10;99.90;;;;;;4251137;27;20464;-82
2023/10/14 02:52:29;;;;;;;6.63;1.80;;;11.10;99.90;;;;;;4251081;27;20521;-82
2023/10/14 02:54:34;;;;;;;8.38;1.10;;;11.10;99.90;;;;;;4232724;28;20507;-82
2023/10/14 02:56:57;;;;;;;7.32;1.20;;;11.10;99.90;;;;;;4232449;28;20047;-82
2023/10/14 02:58:55;;;;;;;12.02;1.42;;;11.10;99.90;;;;;;4232205;28;20492;-82
2023/10/14 03:00:59;;;;;;;8.88;0.98;;;11.10;99.90;;;;;;4250797;27;20057;-82
2023/10/14 03:03:02;;;;;;;10.93;1.15;;;11.10;99.90;;;;;;4250866;27;20047;-82
2023/10/14 03:07:05;;;;;;;11.68;1.63;;;11.10;99.90;;;;;;4232465;28;20051;-82
2023/10/14 03:09:07;;;;;;;10.70;1.67;;;11.00;99.90;;;;;;4250926;27;20054;-82
2023/10/14 03:11:17;;;;;;;15.38;1.60;;;11.00;99.90;;;;;;4250952;27;20542;-82
2023/10/14 03:13:19;;;;;;;13.43;1.15;;;11.00;99.90;;;;;;4232520;28;20408;-82
2023/10/14 03:15:21;;;;;;;9.65;1.10;;;11.00;99.90;;;;;;4250635;27;20043;-82
2023/10/14 03:17:25;;;;;;;13.80;2.10;;;10.90;99.90;;;;;;4250651;27;20110;-82
2023/10/14 03:19:26;;;;;;;8.73;2.25;;;10.90;99.90;;;;;;4215109;28;20153;-82
2023/10/14 03:21:30;;;;;;;10.50;1.10;;;11.20;99.90;;;;;;4232308;28;20507;-82
2023/10/14 03:23:32;;;;;;;11.60;1.48;;;10.90;99.90;;;;;;4250606;27;20088;-82
2023/10/14 03:25:35;;;;;;;11.45;2.00;;;10.90;99.90;;;;;;4250727;27;20119;-82
2023/10/14 03:27:39;;;;;;;7.80;1.15;;;10.80;99.90;;;;;;4232283;28;20389;-82
2023/10/14 03:29:45;;;;;;;8.43;0.90;;;10.80;99.90;;;;;;4232273;28;20051;-82
2023/10/14 03:31:46;;;;;;;7.93;1.80;;;10.80;99.90;;;;;;4231962;27;20543;-82
2023/10/14 03:33:47;;;;;;;9.23;0.93;;;10.80;99.90;;;;;;4250684;27;20035;-82
2023/10/14 03:38:11;;;;;;;16.63;1.98;;;10.80;99.90;;;;;;4250541;27;20043;-82
2023/10/14 03:42:32;;;;;;;8.23;1.63;;;10.70;99.90;;;;;;4232258;28;20052;-82
2023/10/14 03:44:34;;;;;;;8.48;1.10;;;10.70;99.90;;;;;;4250454;27;20058;-82
2023/10/14 03:46:35;;;;;;;7.05;1.83;;;10.70;99.90;;;;;;4250620;27;20035;-82
2023/10/14 03:48:45;;;;;;;13.10;1.00;;;10.70;99.90;;;;;;4250392;27;20104;-82
2023/10/14 03:50:46;;;;;;;7.53;1.13;;;10.70;99.90;;;;;;4230072;28;20089;-82
2023/10/14 03:52:48;;;;;;;8.50;1.30;;;10.70;99.90;;;;;;4250301;27;20055;-82
2023/10/14 03:54:50;;;;;;;7.28;1.58;;;10.70;99.90;;;;;;4232353;28;20040;-82
2023/10/14 03:56:51;;;;;;;11.48;1.52;;;10.70;99.90;;;;;;4215369;28;20044;-82
2023/10/14 03:58:57;;;;;;;10.70;1.40;;;10.70;99.90;;;;;;4231867;28;20124;-82
2023/10/14 04:01:02;;;;;;;7.45;1.00;;;10.70;99.90;;;;;;4215789;28;20085;-82
2023/10/14 04:03:14;;;;;;;6.93;1.40;;;10.70;99.90;;;;;;4233132;28;20050;-82
2023/10/14 04:05:18;;;;;;;10.65;1.13;;;10.70;99.90;;;;;;4250798;27;20123;-83
2023/10/14 04:07:28;;;;;;;11.32;1.92;;;10.70;99.90;;;;;;4232522;28;20507;-82
2023/10/14 04:12:01;;;;;;;8.45;0.98;;;10.80;99.90;;;;;;4219738;28;20052;-82
2023/10/14 04:14:03;;;;;;;7.20;1.15;;;10.80;99.90;;;;;;4233118;28;20054;-82
2023/10/14 04:16:07;;;;;;;7.13;0.57;;;10.80;99.90;;;;;;4215035;28;20142;-82
2023/10/14 04:18:12;;;;;;;6.95;1.27;;;10.80;99.90;;;;;;4232964;28;20044;-82
2023/10/14 04:20:21;;;;;;;13.00;1.48;;;11.20;99.90;;;;;;4214963;28;20052;-82
2023/10/14 04:22:30;;;;;;;8.40;1.20;;;10.90;99.90;;;;;;4214723;28;20040;-82
2023/10/14 04:26:34;;;;;;;10.73;1.27;;;10.80;99.90;;;;;;4232973;28;20044;-83
2023/10/14 04:28:39;;;;;;;6.28;0.60;;;10.80;99.90;;;;;;4215059;28;20043;-82
2023/10/14 04:30:44;;;;;;;5.05;0.73;;;10.90;99.90;;;;;;4233163;28;20079;-82
2023/10/14 04:33:18;;;;;;;8.63;1.25;;;10.90;99.90;;;;;;4232766;28;20047;-82
2023/10/14 04:35:09;;;;;;;10.30;0.98;;;11.20;99.90;;;;;;4214749;28;20069;-82
2023/10/14 04:37:16;;;;;;;11.48;2.55;;;10.90;99.90;;;;;;4232666;28;20043;-82
2023/10/14 04:39:25;;;;;;;13.73;1.85;;;10.90;99.90;;;;;;4232687;28;20049;-82
2023/10/14 04:41:26;;;;;;;11.55;1.50;;;11.00;99.90;;;;;;4214304;28;20503;-82
2023/10/14 04:45:32;;;;;;;12.93;1.77;;;11.00;99.90;;;;;;4232508;28;20078;-82
2023/10/14 04:47:35;;;;;;;7.75;1.30;;;11.00;99.90;;;;;;4230797;28;20043;-82
2023/10/14 04:49:37;;;;;;;9.77;1.38;;;11.00;99.90;;;;;;4232304;28;20436;-82
2023/10/14 04:51:45;;;;;;;7.70;1.38;;;10.00;99.90;;;;;;4232513;28;20051;-82
2023/10/14 04:53:46;;;;;;;12.20;1.17;;;11.30;99.90;;;;;;4232228;28;20039;-82
2023/10/14 04:55:47;;;;;;;8.88;0.90;;;10.90;99.90;;;;;;4232500;28;20052;-82
2023/10/14 05:00:19;;;;;;;10.60;0.98;;;10.80;99.90;;;;;;4232428;28;20051;-82
2023/10/14 05:02:22;;;;;;;10.95;1.15;;;10.80;99.90;;;;;;4232038;28;20122;-81
2023/10/14 05:04:29;;;;;;;6.25;1.05;;;10.80;99.90;;;;;;4231897;28;20085;-82
2023/10/14 05:06:29;;;;;;;8.52;1.25;;;10.80;99.90;;;;;;4232140;28;20051;-82
2023/10/14 05:08:45;;;;;;;5.80;1.15;;;10.70;99.90;;;;;;4232273;27;20047;-81
2023/10/14 05:10:50;;;;;;;13.68;1.77;;;11.10;99.90;;;;;;4246781;27;20043;-81
2023/10/14 05:12:52;;;;;;;9.77;1.38;;;10.90;99.90;;;;;;4243557;27;20039;-82
2023/10/14 05:14:55;;;;;;;11.32;1.55;;;10.70;99.90;;;;;;4231804;28;20043;-82
2023/10/14 05:16:58;;;;;;;13.05;1.67;;;10.60;99.90;;;;;;4232289;28;20180;-82
2023/10/14 05:19:00;;;;;;;9.60;1.00;;;10.70;99.90;;;;;;4249124;27;20039;-82
2023/10/14 05:21:20;;;;;;;12.35;1.95;;;10.70;99.90;;;;;;4230033;28;20053;-82
2023/10/14 05:23:24;;;;;;;7.65;1.42;;;10.60;99.90;;;;;;4248976;27;20085;-81
2023/10/14 05:25:27;;;;;;;9.68;1.00;;;10.60;99.90;;;;;;4248854;27;20086;-82
2023/10/14 05:27:45;;;;;;;8.85;1.50;;;10.60;99.90;;;;;;4248570;27;20193;-82
2023/10/14 05:29:50;;;;;;;8.05;1.10;;;10.50;99.90;;;;;;4242827;27;20039;-82
2023/10/14 05:31:52;;;;;;;10.05;1.80;;;10.50;99.90;;;;;;4231847;28;20036;-82
2023/10/14 05:33:52;;;;;;;11.20;1.88;;;10.50;99.90;;;;;;4196643;28;20500;-82
2023/10/14 05:35:57;;;;;;;14.68;2.28;;;10.40;99.90;;;;;;4231083;28;20043;-82
2023/10/14 05:37:58;;;;;;;12.20;1.70;;;10.40;99.90;;;;;;4231791;28;20039;-82
2023/10/14 05:39:58;;;;;;;7.45;1.58;;;10.40;99.90;;;;;;4231622;28;20066;-82
2023/10/14 05:41:59;;;;;;;12.93;1.70;;;10.90;99.90;;;;;;4231618;28;20483;-82
2023/10/14 05:44:00;;;;;;;7.45;1.67;;;10.40;99.90;;;;;;4231194;28;20100;-82
2023/10/14 05:46:12;;;;;;;10.80;2.03;;;10.40;99.90;;;;;;4231330;28;20075;-82
2023/10/14 05:48:12;;;;;;;11.23;2.70;;;10.30;99.90;;;;;;4231725;28;20074;-82
2023/10/14 05:50:16;;;;;;;11.75;1.38;;;10.40;99.90;;;;;;4231128;28;20048;-82
2023/10/14 05:52:17;;;;;;;11.50;1.52;;;10.40;99.90;;;;;;4231189;28;20043;-82
2023/10/14 05:54:18;;;;;;;10.43;1.52;;;10.40;99.90;;;;;;4231494;28;20408;-82
2023/10/14 05:56:20;;;;;;;12.98;1.50;;;10.40;99.90;;;;;;4231249;28;20384;-82
2023/10/14 05:58:21;;;;;;;17.83;4.05;;;10.40;99.90;;;;;;4230825;28;20047;-82
2023/10/14 06:00:22;;;;;;;12.20;1.25;;;10.40;99.90;;;;;;4231188;28;20548;-82
2023/10/14 06:02:22;;;;;;;15.57;1.63;;;10.90;99.90;;;;;;4213324;28;20094;-82
2023/10/14 06:04:23;;;;;;;23.95;2.30;;;10.40;99.90;;;;;;4213003;28;20052;-82
2023/10/14 06:06:24;;;;;;;6.70;1.45;;;10.70;99.90;;;;;;4231221;28;20046;-81
2023/10/14 06:08:25;;;;;;;14.10;1.58;;;10.40;99.90;;;;;;4213461;28;20100;-82
2023/10/14 06:10:29;;;;;;;13.15;1.70;;;10.40;99.90;;;;;;4196186;28;20106;-82
2023/10/14 06:12:30;;;;;;;7.28;1.52;;;10.40;99.90;;;;;;4231270;28;20035;-82
2023/10/14 06:14:31;;;;;;;7.00;1.75;;;10.40;99.90;;;;;;4231325;28;20093;-82
2023/10/14 06:16:31;;;;;;;7.30;1.10;;;10.40;99.90;;;;;;4212948;28;20043;-82
2023/10/14 06:18:32;;;;;;;12.45;2.08;;;10.40;99.90;;;;;;4231475;28;20031;-82
2023/10/14 06:20:33;;;;;;;11.93;2.03;;;10.40;99.90;;;;;;4231505;28;20134;-82
2023/10/14 06:22:35;;;;;;;9.55;1.20;;;10.40;99.90;;;;;;4231061;28;20047;-82
2023/10/14 06:24:36;;;;;;;11.90;1.23;;;11.00;99.90;;;;;;4230973;28;20114;-82
2023/10/14 06:26:37;;;;;;;13.88;1.52;;;10.40;99.90;;;;;;4231303;28;20813;-82
2023/10/14 06:28:38;;;;;;;6.57;1.17;;;10.40;99.90;;;;;;4231186;28;20079;-82
2023/10/14 06:30:39;;;;;;;7.82;1.33;;;10.30;99.90;;;;;;4212953;28;20056;-82
2023/10/14 06:32:40;;;;;;;8.63;1.75;;;10.40;99.90;;;;;;4231124;28;20047;-82
2023/10/14 06:34:41;;;;;;;10.00;1.35;;;10.40;99.90;;;;;;4231095;28;20389;-82
2023/10/14 06:36:47;;;;;;;12.13;1.77;;;10.80;99.90;;;;;;4230562;28;20812;-82
2023/10/14 06:38:49;;;;;;;18.27;2.50;;;10.40;99.90;;;;;;4231302;28;20044;-82
2023/10/14 06:40:54;;;;;;;12.70;1.83;;;10.40;99.90;;;;;;4230989;28;20387;-82
2023/10/14 06:42:54;;;;;;;10.05;2.03;;;10.40;99.90;;;;;;4231075;28;20047;-82
2023/10/14 06:44:55;;;;;;;11.50;1.58;;;10.40;99.90;;;;;;4212794;28;20464;-82
2023/10/14 06:46:56;;;;;;;7.13;1.15;;;10.40;99.90;;;;;;4231643;28;20039;-83
2023/10/14 06:48:58;;;;;;;13.45;1.95;;;10.50;99.90;;;;;;4231122;28;20048;-82
2023/10/14 06:50:59;;;;;;;9.90;1.20;;;10.50;99.90;;;;;;4231169;28;20113;-82
2023/10/14 06:53:00;;;;;;;9.80;1.55;;;10.50;99.90;;;;;;4213081;28;20118;-82
2023/10/14 06:55:01;;;;;;;9.13;0.93;;;10.50;99.90;;;;;;4212701;28;20524;-81
2023/10/14 06:57:07;;;;;;;5.85;1.25;;;10.50;99.90;;;;;;4212842;28;20082;-82
2023/10/14 06:59:13;;;;;;;14.27;1.27;;;10.60;99.90;;;;;;4231143;28;20101;-82
2023/10/14 07:01:16;;;;;;;11.85;1.70;;;10.60;99.90;;;;;;4231501;28;20055;-82
2023/10/14 07:03:17;;;;;;;13.48;1.40;;;10.60;99.90;;;;;;4212958;28;20447;-82
2023/10/14 07:05:19;;;;;;;9.13;1.75;;;10.60;99.90;;;;;;4213677;28;20519;-82
2023/10/14 07:07:21;;;;;;;8.55;1.33;;;10.60;99.90;;;;;;4231426;28;20048;-82
2023/10/14 07:09:23;;;;;;;7.05;2.15;;;10.60;99.90;;;;;;4231101;28;20040;-82
2023/10/14 07:11:24;;;;;;;7.72;0.85;;;10.60;99.90;;;;;;4213065;28;20149;-82
2023/10/14 07:13:25;;;;;;;7.22;1.83;;;10.70;99.90;;;;;;4198117;28;20052;-82
2023/10/14 07:15:26;;;;;;;8.07;1.08;;;10.70;99.90;;;;;;4248156;28;20047;-82
2023/10/14 07:17:28;;;;;;;11.60;1.10;;;10.80;99.90;;;;;;4247601;28;20039;-82
2023/10/14 07:19:29;;;;;;;11.10;1.50;;;10.80;99.90;;;;;;4229899;28;20043;-82
2023/10/14 07:21:31;;;;;;;8.02;1.20;;;10.80;99.90;;;;;;4229706;28;20502;-82
2023/10/14 07:23:34;;;;;;;13.00;2.00;;;10.90;99.90;;;;;;4232145;28;20051;-82
2023/10/14 07:25:39;;;;;;;4.03;1.25;;;10.90;99.90;;;;;;4250721;27;20118;-82
2023/10/14 07:27:40;;;;;;;3.80;0.82;;;11.00;99.90;;;;;;4249702;27;20471;-83
2023/10/14 07:29:45;;;;;;;13.43;1.85;;;11.10;99.90;;;;;;4234553;27;20067;-82
2023/10/14 07:31:47;;;;;;;10.90;1.13;;;11.60;99.90;;;;;;4215885;28;20048;-82
2023/10/14 07:33:47;;;;;;;13.07;2.35;;;11.10;99.90;;;;;;4233104;28;20110;-83
2023/10/14 07:35:48;;;;;;;10.88;1.58;;;11.20;99.90;;;;;;4215310;28;20048;-83
2023/10/14 07:37:51;;;;;;;7.88;1.83;;;11.30;99.90;;;;;;4215147;28;20392;-83
2023/10/14 07:39:54;;;;;;;6.38;1.00;;;11.30;99.90;;;;;;4198402;28;20059;-82
2023/10/14 07:41:56;;;;;;;8.43;2.20;;;11.50;99.90;;;;;;4233332;28;20039;-82
2023/10/14 07:43:57;;;;;;;11.25;1.95;;;11.60;99.90;;;;;;4215443;28;20055;-83
2023/10/14 07:45:58;;;;;;;10.23;2.13;;;11.70;99.90;;;;;;4233267;28;20028;-83
2023/10/14 07:48:09;;;;;;;10.50;1.63;;;11.80;99.90;;;;;;4233261;28;20043;-83
2023/10/14 07:50:11;;;;;;;7.85;1.13;;;11.90;99.90;;;;;;4214853;28;20420;-82
2023/10/14 07:52:14;;;;;;;7.97;1.63;;;12.00;99.90;;;;;;4233286;28;20540;-82
2023/10/14 07:54:15;;;;;;;10.70;2.38;;;12.00;99.90;;;;;;4233043;28;20561;-82
2023/10/14 07:56:16;;;;;;;8.70;1.10;;;12.00;99.90;;;;;;4233106;28;20096;-82
2023/10/14 07:58:24;;;;;;;9.98;1.67;;;12.00;99.90;;;;;;4215000;28;20044;-82
2023/10/14 08:00:36;;;;;;;14.50;3.25;;;12.10;99.90;;;;;;4233436;28;20044;-82
2023/10/14 08:02:37;;;;;;;8.93;1.48;;;12.20;99.90;;;;;;4214448;28;20048;-82
2023/10/14 08:04:38;;;;;;;7.30;1.08;;;12.30;99.90;;;;;;4233074;28;20063;-82
2023/10/14 08:06:40;;;;;;;9.05;1.55;;;12.40;99.90;;;;;;4233053;28;20067;-82
2023/10/14 08:08:47;;;;;;;9.13;1.35;;;12.40;99.90;;;;;;4198002;28;20044;-82
2023/10/14 08:10:50;;;;;;;7.53;1.85;;;13.50;99.90;;;;;;4232960;28;20550;-82
2023/10/14 08:12:52;;;;;;;9.23;1.20;;;14.40;99.90;;;;;;4214865;28;20043;-82
2023/10/14 08:14:54;;;;;;;10.10;1.65;;;15.10;99.90;;;;;;4214299;28;20044;-83
2023/10/14 08:16:57;;;;;;;11.90;2.05;;;15.80;99.90;;;;;;4232697;28;20051;-83
2023/10/14 08:19:01;;;;;;;4.72;1.02;;;16.50;99.90;;;;;;4214554;28;20101;-82
2023/10/14 08:21:03;;;;;;;8.98;1.85;;;17.00;99.90;;;;;;4232984;28;20526;-83
2023/10/14 08:23:09;;;;;;;10.65;1.88;;;17.50;99.90;;;;;;4224020;28;20035;-82
2023/10/14 08:25:10;;;;;;;8.02;1.17;;;;;;;;;;4232820;28;20442;-82
2023/10/14 08:27:12;;;;;;;12.07;1.58;;;;;;;;;;4232289;28;20065;-83
2023/10/14 08:29:13;;;;;;;6.68;1.30;;;;;;;;;;4232663;28;20552;-83
2023/10/14 08:31:16;;;;;;;7.47;1.13;;;17.80;99.90;;;;;;4232574;28;20050;-83
2023/10/14 08:33:19;;;;;;;8.20;1.15;;;18.60;99.90;;;;;;4197418;28;20044;-83
2023/10/14 08:35:20;;;;;;;6.25;1.38;;;19.00;99.90;;;;;;4232897;28;20051;-83
2023/10/14 08:37:21;;;;;;;4.30;0.98;;;19.20;99.90;;;;;;4231970;28;20051;-82
2023/10/14 08:39:23;;;;;;;7.35;0.98;;;19.40;99.90;;;;;;4239777;27;20071;-82
2023/10/14 08:41:26;;;;;;;8.48;1.27;;;19.50;99.90;;;;;;4244881;28;20054;-81
2023/10/14 08:43:30;;;;;;;6.78;0.82;;;19.80;99.90;;;;;;4244159;27;20511;-83
2023/10/14 08:45:39;;;;;;;7.68;1.17;;;20.00;99.90;;;;;;4231150;28;20043;-83
2023/10/14 08:47:40;;;;;;;3.93;0.60;;;20.30;99.90;;;;;;4249756;27;20491;-83
2023/10/14 08:49:42;;;;;;;6.07;1.45;;;20.30;99.90;;;;;;4249231;27;20047;-82
2023/10/14 08:51:44;;;;;;;10.52;1.25;;;20.60;99.90;;;;;;4250206;27;20043;-83
2023/10/14 08:53:51;;;;;;;2.97;0.65;;;20.70;99.90;;;;;;4249340;27;20153;-84
2023/10/14 08:55:52;;;;;;;9.63;2.25;;;20.80;99.90;;;;;;4231124;28;20044;-82
2023/10/14 08:57:53;;;;;;;3.47;1.08;;;21.10;99.90;;;;;;4222010;28;20036;-83
2023/10/14 08:59:55;;;;;;;7.68;1.67;;;21.10;99.90;;;;;;4232233;28;20488;-82
2023/10/14 09:01:56;;;;;;;5.47;1.15;;;21.30;99.90;;;;;;4232324;28;20412;-82
2023/10/14 09:03:59;;;;;;;5.30;1.10;;;21.60;99.90;;;;;;4214110;28;20047;-82
2023/10/14 09:06:06;;;;;;;7.05;1.35;;;21.60;99.90;;;;;;4214373;28;20119;-82
2023/10/14 09:08:09;;;;;;;8.13;0.90;;;21.60;99.90;;;;;;4232326;28;20051;-82
2023/10/14 09:10:11;;;;;;;7.60;1.35;;;21.90;99.90;;;;;;4231738;28;20043;-82
2023/10/14 09:12:13;;;;;;;4.18;0.80;;;21.90;99.90;;;;;;4232245;28;20403;-83
2023/10/14 09:14:14;;;;;;;6.60;1.20;;;21.90;99.90;;;;;;4213797;28;20044;-83
2023/10/14 09:16:26;;;;;;;8.20;1.05;;;21.90;99.90;;;;;;4212945;28;20048;-83
2023/10/14 09:18:30;;;;;;;8.82;0.90;;;21.50;99.90;;;;;;4231911;28;20492;-83
2023/10/14 09:20:37;;;;;;;8.70;1.00;;;21.70;99.90;;;;;;4231799;28;20119;-83
2023/10/14 09:22:38;;;;;;;8.48;0.90;;;21.70;99.90;;;;;;4236290;27;20047;-83
2023/10/14 09:24:41;;;;;;;4.18;0.93;;;20.90;99.90;;;;;;4242290;27;20387;-83
2023/10/14 09:26:44;;;;;;;4.50;0.93;;;19.60;99.90;;;;;;4241090;27;20061;-82
2023/10/14 09:28:48;;;;;;;6.25;0.60;;;18.40;99.90;;;;;;4232157;28;20046;-83
2023/10/14 09:30:54;;;;;;;6.85;1.25;;;17.40;99.90;;;;;;4240449;27;20042;-84
2023/10/14 09:32:55;;;;;;;5.72;0.73;;;16.70;99.90;;;;;;4230650;28;20088;-82
2023/10/14 09:34:58;;;;;;;3.50;0.82;;;16.30;99.90;;;;;;4213817;28;20044;-82
2023/10/14 09:37:10;;;;;;;7.25;1.83;;;16.00;99.90;;;;;;4214795;28;20036;-82
2023/10/14 09:39:13;;;;;;;2.60;1.00;;;15.60;99.90;;;;;;4231894;28;20079;-83
2023/10/14 09:41:15;;;;;;;8.15;1.73;;;15.50;99.90;;;;;;4231536;28;20096;-82
2023/10/14 09:43:17;;;;;;;3.53;0.70;;;16.40;99.90;;;;;;4231864;28;20039;-82
2023/10/14 09:45:22;;;;;;;5.07;0.98;;;17.10;99.90;;;;;;4214066;28;20120;-82
2023/10/14 09:47:25;;;;;;;4.82;0.65;;;17.60;99.90;;;;;;4244871;27;20039;-82
2023/10/14 09:49:27;;;;;;;4.93;1.00;;;18.00;99.90;;;;;;4249254;27;20050;-83
2023/10/14 09:51:29;;;;;;;6.00;0.65;;;18.40;99.90;;;;;;4244405;27;20426;-83
2023/10/14 09:53:35;;;;;;;7.05;1.65;;;18.60;99.90;;;;;;4232734;28;20479;-82
2023/10/14 09:55:37;;;;;;;7.63;1.10;;;18.90;99.90;;;;;;4233627;28;20054;-81
2023/10/14 09:57:38;;;;;;;4.35;0.77;;;19.00;99.90;;;;;;4247003;28;20246;-81
2023/10/14 09:59:44;;;;;;;3.95;0.60;;;19.00;99.90;;;;;;4249942;27;20114;-82
2023/10/14 10:01:44;;;;;;;7.22;1.10;;;18.70;99.90;;;;;;4248186;27;20038;-82
2023/10/14 10:04:02;;;;;;;5.97;0.70;;;18.80;99.90;;;;;;4248337;27;20437;-83
2023/10/14 10:06:15;;;;;;;3.92;0.80;;;18.90;99.90;;;;;;4247945;27;20043;-83
2023/10/14 10:08:43;;;;;;;3.00;0.85;;;18.50;99.90;;;;;;4247734;28;20084;-83
2023/10/14 10:10:47;;;;;;;4.40;1.13;;;18.10;99.90;;;;;;4248122;28;20047;-83
2023/10/14 10:12:55;;;;;;;4.75;0.73;;;17.40;99.90;;;;;;4247542;28;20483;-83
2023/10/14 10:15:03;;;;;;;5.25;1.38;;;16.80;99.90;;;;;;4248223;28;20043;-83
2023/10/14 10:17:08;;;;;;;6.03;0.57;;;16.20;99.90;;;;;;4248073;28;20093;-82
2023/10/14 10:19:10;;;;;;;3.78;0.93;;;15.90;99.90;;;;;;4239029;28;20042;-83
2023/10/14 10:21:12;;;;;;;7.18;1.45;;;15.60;99.90;;;;;;4239570;28;20047;-82
2023/10/14 10:23:14;;;;;;;4.78;0.80;;;15.20;99.90;;;;;;4249122;28;20047;-83
2023/10/14 10:25:50;;;;;;;6.47;1.20;;;15.20;99.90;;;;;;4230299;28;20143;-83
2023/10/14 10:27:55;;;;;;;6.13;0.80;;;14.40;99.90;;;;;;4247791;28;20043;-83
2023/10/14 10:29:55;;;;;;;8.38;1.00;;;15.90;99.90;;;;;;4212786;28;20074;-82
2023/10/14 10:32:06;;;;;;;4.65;0.95;;;16.30;99.90;;;;;;4246063;28;20043;-83
2023/10/14 10:34:08;;;;;;;7.88;0.95;;;16.50;99.90;;;;;;4229828;28;20039;-83
2023/10/14 10:36:11;;;;;;;5.38;1.73;;;16.80;99.90;;;;;;4229431;28;20048;-83
2023/10/14 10:38:13;;;;;;;6.43;1.00;;;17.10;99.90;;;;;;4247695;28;20047;-83
2023/10/14 10:40:22;;;;;;;8.15;0.60;;;17.20;99.90;;;;;;4247624;28;20065;-83
2023/10/14 10:42:25;;;;;;;4.53;0.80;;;17.20;99.90;;;;;;4247192;27;20043;-83
2023/10/14 10:44:26;;;;;;;4.93;1.38;;;17.50;99.90;;;;;;4248376;28;20039;-83
2023/10/14 10:46:44;;;;;;;8.40;1.02;;;17.70;99.90;;;;;;4247862;28;20114;-83
2023/10/14 10:48:46;;;;;;;9.05;1.23;;;17.90;99.90;;;;;;4231765;28;20096;-83
2023/10/14 10:50:51;;;;;;;6.32;1.45;;;18.10;99.90;;;;;;4230706;28;20061;-83
2023/10/14 10:53:07;;;;;;;5.00;0.90;;;18.30;99.90;;;;;;4230804;28;20468;-83
2023/10/14 10:55:09;;;;;;;4.75;1.67;;;18.50;99.90;;;;;;4230750;28;20051;-82
2023/10/14 10:57:11;;;;;;;7.75;1.42;;;18.80;99.90;;;;;;4232706;28;20086;-83
2023/10/14 10:59:14;;;;;;;2.20;0.95;;;18.80;99.90;;;;;;4233939;28;20043;-83
2023/10/14 11:01:15;;;;;;;5.07;1.60;;;18.50;99.90;;;;;;4199122;28;20405;-83
2023/10/14 11:03:17;;;;;;;5.25;1.20;;;18.00;99.90;;;;;;4233680;28;20050;-82
2023/10/14 11:05:21;;;;;;;6.43;1.05;;;17.50;99.90;;;;;;4233331;28;20059;-83
2023/10/14 11:07:25;;;;;;;5.72;1.25;;;17.30;99.90;;;;;;4233118;27;20047;-83